Terminal Aerodrome Forecast
Issued by NWS

Home | Current Version | Previous Version | Text Only | Print | Product List | Glossary On
Versions: 1 2 3 4 5 6 7 8 9 10 11 12
000
FTUS42 KMLB 261127
TAFISM
TAF
KISM 261127Z 2612/2712 09004KT P6SM FEW035 BKN250
     FM261400 13010KT P6SM SCT025 SCT100 OVC250
     FM261700 12012KT P6SM -RA VCSH SCT025 BKN080 OVC150
      TEMPO 2618/2622 3SM SHRA BKN025
     FM270100 12009KT P6SM VCSH SCT025 BKN100 OVC200
     FM270800 12011KT P6SM VCSH SCT020 OVC070=

USA.gov is the U.S. government's official web portal to all federal, state and local government web resources and services.